createdAt,value
2019-03-31T00:00:32.233Z,9.17
2019-03-31T00:03:03.482Z,9.30
2019-03-31T00:05:37.297Z,8.77
2019-03-31T00:08:07.878Z,9.00
2019-03-31T00:10:41.391Z,8.73
2019-03-31T00:13:12.693Z,8.60
2019-03-31T00:15:43.969Z,8.23
2019-03-31T00:18:15.181Z,8.50
2019-03-31T00:20:46.428Z,8.90
2019-03-31T00:23:17.718Z,9.23
2019-03-31T00:25:51.591Z,9.00
2019-03-31T00:28:22.991Z,9.80
2019-03-31T00:30:55.118Z,8.33
2019-03-31T00:33:26.367Z,8.67
2019-03-31T00:35:57.614Z,8.13
2019-03-31T00:38:28.929Z,8.23
2019-03-31T00:41:00.172Z,9.07
2019-03-31T00:43:31.559Z,8.00
2019-03-31T00:46:02.871Z,8.00
2019-03-31T00:48:34.092Z,9.00
2019-03-31T00:51:05.332Z,8.73
2019-03-31T00:53:36.580Z,8.70
2019-03-31T00:56:07.788Z,8.57
2019-03-31T00:58:40.234Z,7.47
2019-03-31T01:01:36.883Z,8.07
2019-03-31T01:04:08.543Z,8.70
2019-03-31T01:06:40.800Z,8.73
2019-03-31T01:09:29.985Z,8.37
2019-03-31T01:12:02.411Z,7.67
2019-03-31T01:14:34.399Z,8.53
2019-03-31T01:17:08.676Z,8.90
2019-03-31T01:19:41.572Z,7.60
2019-03-31T01:22:12.854Z,8.93
2019-03-31T01:24:44.134Z,8.63
2019-03-31T01:27:15.348Z,8.57
2019-03-31T01:29:46.585Z,8.33
2019-03-31T01:32:18.060Z,7.23
2019-03-31T01:34:49.678Z,7.40
2019-03-31T01:37:21.792Z,6.83
2019-03-31T01:39:53.492Z,8.13
2019-03-31T01:42:24.854Z,8.00
2019-03-31T01:44:56.087Z,7.83
2019-03-31T01:47:27.333Z,7.70
2019-03-31T01:49:59.019Z,8.17
2019-03-31T01:52:30.223Z,7.67
2019-03-31T01:55:03.683Z,8.23
2019-03-31T01:57:34.964Z,8.43
2019-03-31T02:00:10.836Z,6.87
2019-03-31T02:02:42.127Z,8.07
2019-03-31T02:05:13.374Z,7.93
2019-03-31T02:07:44.597Z,8.03
2019-03-31T02:10:16.075Z,7.90
2019-03-31T02:12:47.291Z,7.57
2019-03-31T02:15:18.587Z,8.50
2019-03-31T02:17:49.798Z,8.07
2019-03-31T02:20:21.093Z,7.77
2019-03-31T02:22:52.392Z,8.23
2019-03-31T02:25:23.640Z,7.60
2019-03-31T02:27:54.919Z,7.87
2019-03-31T02:30:26.236Z,7.23
2019-03-31T02:32:57.481Z,7.30
2019-03-31T02:35:28.706Z,7.63
2019-03-31T02:37:59.925Z,8.50
2019-03-31T02:40:31.153Z,8.07
2019-03-31T02:43:02.452Z,7.90
2019-03-31T02:45:33.670Z,7.97
2019-03-31T02:48:05.028Z,7.53
2019-03-31T02:50:52.601Z,7.87
2019-03-31T02:53:24.342Z,8.97
2019-03-31T02:55:58.429Z,8.93
2019-03-31T02:58:30.360Z,8.10
2019-03-31T03:01:02.419Z,7.40
2019-03-31T03:03:37.522Z,8.33
2019-03-31T03:06:12.800Z,7.47
2019-03-31T03:08:47.361Z,7.83
2019-03-31T03:11:21.093Z,6.97
2019-03-31T03:13:53.559Z,7.53
2019-03-31T03:16:25.240Z,7.50
2019-03-31T03:18:56.807Z,7.30
2019-03-31T03:21:28.187Z,7.33
2019-03-31T03:23:59.440Z,8.00
2019-03-31T03:26:30.733Z,7.40
2019-03-31T03:29:02.134Z,7.53
2019-03-31T03:31:33.473Z,6.90
2019-03-31T03:34:04.870Z,7.50
2019-03-31T03:36:36.091Z,7.97
2019-03-31T03:39:09.280Z,8.83
2019-03-31T03:41:40.483Z,8.47
2019-03-31T03:44:11.751Z,8.80
2019-03-31T03:46:42.993Z,8.77
2019-03-31T03:49:14.478Z,7.57
2019-03-31T03:51:45.859Z,6.90
2019-03-31T03:54:17.107Z,7.13
2019-03-31T03:56:48.353Z,7.23
2019-03-31T03:59:19.748Z,7.40
2019-03-31T04:01:54.178Z,7.27
2019-03-31T04:04:25.436Z,6.93
2019-03-31T04:06:56.708Z,7.70
2019-03-31T04:09:28.043Z,6.87
2019-03-31T04:11:59.333Z,6.43
2019-03-31T04:14:30.557Z,7.00
2019-03-31T04:17:01.829Z,7.07
2019-03-31T04:19:33.097Z,6.83
2019-03-31T04:22:04.314Z,6.60
2019-03-31T04:24:35.567Z,6.53
2019-03-31T04:27:06.837Z,7.07
2019-03-31T04:29:38.035Z,6.67
2019-03-31T04:32:09.289Z,6.73
2019-03-31T04:34:40.532Z,6.50
2019-03-31T04:37:14.057Z,6.50
2019-03-31T04:39:45.259Z,6.70
2019-03-31T04:42:16.504Z,6.47
2019-03-31T04:44:47.741Z,7.07
2019-03-31T04:47:19.034Z,7.43
2019-03-31T04:49:51.533Z,7.20
2019-03-31T04:52:24.618Z,7.87
2019-03-31T04:54:55.847Z,6.83
2019-03-31T04:57:27.113Z,7.27
2019-03-31T04:59:58.384Z,6.90
2019-03-31T05:02:29.603Z,7.17
2019-03-31T05:05:03.043Z,7.27
2019-03-31T05:07:34.366Z,6.63
2019-03-31T05:10:05.959Z,7.00
2019-03-31T05:12:37.196Z,7.97
2019-03-31T05:15:08.910Z,7.10
2019-03-31T05:17:40.169Z,7.03
2019-03-31T05:20:11.581Z,7.27
2019-03-31T05:22:43.923Z,6.83
2019-03-31T05:25:15.177Z,7.23
2019-03-31T05:27:46.450Z,7.37
2019-03-31T05:30:17.700Z,7.37
2019-03-31T05:32:48.940Z,6.90
2019-03-31T05:35:20.209Z,7.23
2019-03-31T05:37:51.650Z,8.37
2019-03-31T05:40:23.171Z,6.83
2019-03-31T05:42:54.459Z,7.20
2019-03-31T05:45:26.400Z,7.60
2019-03-31T05:47:57.662Z,7.33
2019-03-31T05:50:32.270Z,7.37
2019-03-31T05:53:03.655Z,7.13
2019-03-31T05:55:35.261Z,7.67
2019-03-31T05:58:06.488Z,7.27
2019-03-31T06:00:46.781Z,7.97
2019-03-31T06:03:18.023Z,8.30
2019-03-31T06:05:49.647Z,7.87
2019-03-31T06:08:21.064Z,7.80
2019-03-31T06:10:52.521Z,7.77
2019-03-31T06:13:23.788Z,9.37
2019-03-31T06:15:55.108Z,8.87
2019-03-31T06:18:26.328Z,9.17
2019-03-31T06:20:57.593Z,9.77
2019-03-31T06:23:30.259Z,10.57
2019-03-31T06:26:01.705Z,11.43
2019-03-31T06:28:35.785Z,11.33
2019-03-31T06:31:06.306Z,10.63
2019-03-31T06:33:37.696Z,11.47
2019-03-31T06:36:08.992Z,10.70
2019-03-31T06:38:41.212Z,10.87
2019-03-31T06:41:12.743Z,10.07
2019-03-31T06:43:44.114Z,10.53
2019-03-31T06:46:18.233Z,9.87
2019-03-31T06:48:49.446Z,9.67
2019-03-31T06:51:20.668Z,8.60
2019-03-31T06:53:51.979Z,7.93
2019-03-31T06:56:23.352Z,7.87
2019-03-31T06:58:55.034Z,7.87
2019-03-31T07:01:27.372Z,7.63
2019-03-31T07:03:58.643Z,6.97
2019-03-31T07:06:29.875Z,8.10
2019-03-31T07:09:01.137Z,6.90
2019-03-31T07:11:32.664Z,7.20
2019-03-31T07:14:05.066Z,6.97
2019-03-31T07:16:42.499Z,7.37
2019-03-31T07:19:13.884Z,7.33
2019-03-31T07:21:47.369Z,6.90
2019-03-31T07:24:27.522Z,7.53
2019-03-31T07:27:19.187Z,7.30
2019-03-31T07:30:09.616Z,6.87
2019-03-31T07:32:41.471Z,7.20
2019-03-31T07:35:18.627Z,6.97
2019-03-31T07:37:47.925Z,7.17
2019-03-31T07:40:21.952Z,7.13
2019-03-31T07:42:53.214Z,6.60
2019-03-31T07:45:24.647Z,6.67
2019-03-31T07:47:55.955Z,6.60
2019-03-31T07:50:28.354Z,7.30
2019-03-31T07:53:01.115Z,6.60
2019-03-31T07:55:32.360Z,6.90
2019-03-31T07:58:03.659Z,7.07
2019-03-31T08:00:38.007Z,7.43
2019-03-31T08:03:09.290Z,7.27
2019-03-31T08:05:40.840Z,7.63
2019-03-31T08:08:12.388Z,7.57
2019-03-31T08:10:43.658Z,8.33
2019-03-31T08:13:14.946Z,7.63
2019-03-31T08:15:46.217Z,8.33
2019-03-31T08:18:17.539Z,7.87
2019-03-31T08:20:51.416Z,9.00
2019-03-31T08:23:22.738Z,7.77
2019-03-31T08:25:54.386Z,8.33
2019-03-31T08:28:27.715Z,8.93
2019-03-31T08:30:59.030Z,8.87
2019-03-31T08:33:30.306Z,8.50
2019-03-31T08:36:01.733Z,9.80
2019-03-31T08:38:34.022Z,9.20
2019-03-31T08:41:05.312Z,10.53
2019-03-31T08:43:37.129Z,9.63
2019-03-31T08:46:08.419Z,9.37
2019-03-31T08:48:39.787Z,9.17
2019-03-31T08:51:11.033Z,10.17
2019-03-31T08:53:42.386Z,10.00
2019-03-31T08:56:13.735Z,10.33
2019-03-31T08:58:48.126Z,9.90
2019-03-31T09:01:20.895Z,10.47
2019-03-31T09:03:52.152Z,10.07
2019-03-31T09:06:23.427Z,10.27
2019-03-31T09:08:54.713Z,10.93
2019-03-31T09:11:26.023Z,10.40
2019-03-31T09:13:57.372Z,10.67
2019-03-31T09:16:28.615Z,10.50
2019-03-31T09:19:00.176Z,11.20
2019-03-31T09:21:31.503Z,11.10
2019-03-31T09:24:02.879Z,11.77
2019-03-31T09:26:34.127Z,11.20
2019-03-31T09:29:05.465Z,11.43
2019-03-31T09:31:36.699Z,11.80
2019-03-31T09:34:07.946Z,12.13
2019-03-31T09:36:39.215Z,12.70
2019-03-31T09:39:11.487Z,12.27
2019-03-31T09:41:42.973Z,11.90
2019-03-31T09:44:14.176Z,10.47
2019-03-31T09:46:45.491Z,10.23
2019-03-31T09:49:16.737Z,12.13
2019-03-31T09:51:48.090Z,9.60
2019-03-31T09:54:19.403Z,7.70
2019-03-31T09:56:50.827Z,9.33
2019-03-31T09:59:22.236Z,9.07
2019-03-31T10:01:53.651Z,8.77
2019-03-31T10:04:24.921Z,7.70
2019-03-31T10:06:56.785Z,8.00
2019-03-31T10:09:28.662Z,7.20
2019-03-31T10:12:00.312Z,8.43
2019-03-31T10:14:31.601Z,9.37
2019-03-31T10:17:03.009Z,7.20
2019-03-31T10:19:34.238Z,6.23
2019-03-31T10:22:05.489Z,6.10
2019-03-31T10:24:36.756Z,5.93
2019-03-31T10:27:08.104Z,6.27
2019-03-31T10:29:39.343Z,5.80
2019-03-31T10:32:12.236Z,5.93
2019-03-31T10:34:43.612Z,7.50
2019-03-31T10:37:14.900Z,7.50
2019-03-31T10:39:46.136Z,6.90
2019-03-31T10:42:17.407Z,6.93
2019-03-31T10:44:48.677Z,6.90
2019-03-31T10:47:19.949Z,6.30
2019-03-31T10:49:51.227Z,6.20
2019-03-31T10:52:22.529Z,5.73
2019-03-31T10:54:54.124Z,5.73
2019-03-31T10:57:25.525Z,6.00
2019-03-31T10:59:57.931Z,7.10
2019-03-31T11:02:29.358Z,7.77
2019-03-31T11:05:03.588Z,7.50
2019-03-31T11:07:36.900Z,7.63
2019-03-31T11:10:08.918Z,7.70
2019-03-31T11:12:41.545Z,6.87
2019-03-31T11:15:13.507Z,8.03
2019-03-31T11:17:45.800Z,7.23
2019-03-31T11:20:17.283Z,6.57
2019-03-31T11:22:59.424Z,7.60
2019-03-31T11:25:30.795Z,7.77
2019-03-31T11:28:02.149Z,7.67
2019-03-31T11:30:34.580Z,6.80
2019-03-31T11:33:07.667Z,7.13
2019-03-31T11:35:58.066Z,8.33
2019-03-31T11:38:29.482Z,8.10
2019-03-31T11:41:02.155Z,8.13
2019-03-31T11:43:33.508Z,7.63
2019-03-31T11:46:04.914Z,7.73
2019-03-31T11:48:36.254Z,7.37
2019-03-31T11:51:07.775Z,7.37
2019-03-31T11:53:39.219Z,7.40
2019-03-31T11:56:10.592Z,7.63
2019-03-31T11:58:42.055Z,7.10
2019-03-31T12:01:13.477Z,7.37
2019-03-31T12:03:44.929Z,7.07
2019-03-31T12:06:16.355Z,7.73
2019-03-31T12:08:54.913Z,7.67
2019-03-31T12:11:32.294Z,8.50
2019-03-31T12:14:03.567Z,7.60
2019-03-31T12:16:36.928Z,7.30
2019-03-31T12:19:08.258Z,7.50
2019-03-31T12:21:39.521Z,7.23
2019-03-31T12:24:10.796Z,7.17
2019-03-31T12:26:42.107Z,7.30
2019-03-31T12:29:13.646Z,7.43
2019-03-31T12:31:45.317Z,7.83
2019-03-31T12:34:16.564Z,7.03
2019-03-31T12:36:48.034Z,7.40
2019-03-31T12:39:19.279Z,7.27
2019-03-31T12:41:50.611Z,6.90
2019-03-31T12:44:24.977Z,6.43
2019-03-31T12:46:56.295Z,6.93
2019-03-31T12:49:27.799Z,7.10
2019-03-31T12:51:59.131Z,6.90
2019-03-31T12:54:30.421Z,7.03
2019-03-31T12:57:01.878Z,7.17
2019-03-31T12:59:33.265Z,7.40
2019-03-31T13:02:04.519Z,6.70
2019-03-31T13:04:35.824Z,6.90
2019-03-31T13:07:07.364Z,6.63
2019-03-31T13:09:38.642Z,6.83
2019-03-31T13:12:09.947Z,7.33
2019-03-31T13:14:41.249Z,7.63
2019-03-31T13:17:12.559Z,7.23
2019-03-31T13:19:46.225Z,6.87
2019-03-31T13:22:17.521Z,7.20
2019-03-31T13:24:49.548Z,6.33
2019-03-31T13:27:20.984Z,7.03
2019-03-31T13:29:52.358Z,7.03
2019-03-31T13:32:23.731Z,7.07
2019-03-31T13:34:55.142Z,6.50
2019-03-31T13:37:26.722Z,6.97
2019-03-31T13:39:57.989Z,7.13
2019-03-31T13:42:29.263Z,7.27
2019-03-31T13:45:00.675Z,6.70
2019-03-31T13:47:31.931Z,6.60
2019-03-31T13:50:03.078Z,7.17
2019-03-31T13:52:34.355Z,6.70
2019-03-31T13:55:07.134Z,7.43
2019-03-31T13:57:40.187Z,6.53
2019-03-31T14:00:13.050Z,7.40
2019-03-31T14:02:44.513Z,7.03
2019-03-31T14:05:16.103Z,8.17
2019-03-31T14:07:47.393Z,7.03
2019-03-31T14:10:20.803Z,7.70
2019-03-31T14:12:52.163Z,6.70
2019-03-31T14:15:23.501Z,7.00
2019-03-31T14:17:54.799Z,7.17
2019-03-31T14:20:26.114Z,7.27
2019-03-31T14:22:57.361Z,7.23
2019-03-31T14:25:28.749Z,6.93
2019-03-31T14:28:03.832Z,7.60
2019-03-31T14:30:35.072Z,7.40
2019-03-31T14:33:06.390Z,8.00
2019-03-31T14:35:38.217Z,8.00
2019-03-31T14:38:09.860Z,8.20
2019-03-31T14:40:41.154Z,8.37
2019-03-31T14:43:12.494Z,7.57
2019-03-31T14:45:43.861Z,8.00
2019-03-31T14:48:15.420Z,7.77
2019-03-31T14:50:46.685Z,7.83
2019-03-31T14:53:18.019Z,8.07
2019-03-31T14:55:49.376Z,7.40
2019-03-31T14:58:20.757Z,7.37
2019-03-31T15:00:52.047Z,8.03
2019-03-31T15:03:23.535Z,8.53
2019-03-31T15:05:54.769Z,7.93
2019-03-31T15:08:26.039Z,8.07
2019-03-31T15:10:57.449Z,8.13
2019-03-31T15:13:28.738Z,7.53
2019-03-31T15:16:01.928Z,7.80
2019-03-31T15:18:33.214Z,8.70
2019-03-31T15:21:04.584Z,8.33
2019-03-31T15:23:36.151Z,8.67
2019-03-31T15:26:07.429Z,8.30
2019-03-31T15:28:39.744Z,8.43
2019-03-31T15:31:11.203Z,7.53
2019-03-31T15:33:42.482Z,8.00
2019-03-31T15:36:13.943Z,7.90
2019-03-31T15:38:48.401Z,9.80
2019-03-31T15:41:21.405Z,8.03
2019-03-31T15:43:52.879Z,9.13
2019-03-31T15:46:24.814Z,9.33
2019-03-31T15:48:56.203Z,8.60
2019-03-31T15:51:27.475Z,8.87
2019-03-31T15:53:58.735Z,8.80
2019-03-31T15:56:30.086Z,8.50
2019-03-31T15:59:01.333Z,8.00
2019-03-31T16:01:32.635Z,8.73
2019-03-31T16:04:03.946Z,8.40
2019-03-31T16:06:35.275Z,9.17
2019-03-31T16:09:22.315Z,8.70
2019-03-31T16:11:53.528Z,8.73
2019-03-31T16:14:17.013Z,8.53
2019-03-31T16:16:47.692Z,8.63
2019-03-31T16:19:18.986Z,8.87
2019-03-31T16:21:49.491Z,9.00
2019-03-31T16:24:33.834Z,8.30
2019-03-31T16:27:04.322Z,8.77
2019-03-31T16:29:35.462Z,8.00
2019-03-31T16:32:06.160Z,8.53
2019-03-31T16:34:36.707Z,8.53
2019-03-31T16:37:07.198Z,8.90
2019-03-31T16:39:39.252Z,9.67
2019-03-31T16:42:09.808Z,8.50
2019-03-31T16:44:40.435Z,8.60
2019-03-31T16:47:12.838Z,7.97
2019-03-31T16:49:43.374Z,7.40
2019-03-31T16:52:14.006Z,7.93
2019-03-31T16:54:45.042Z,7.50
2019-03-31T16:57:15.639Z,8.17
2019-03-31T16:59:46.532Z,7.80
2019-03-31T17:02:18.019Z,7.27
2019-03-31T17:04:49.337Z,8.13
2019-03-31T17:07:21.106Z,7.77
2019-03-31T17:09:52.129Z,8.30
2019-03-31T17:12:22.732Z,7.40
2019-03-31T17:14:54.984Z,8.10
2019-03-31T17:17:25.802Z,7.43
2019-03-31T17:19:56.459Z,7.70
2019-03-31T17:22:27.264Z,8.27
2019-03-31T17:25:00.408Z,8.20
2019-03-31T17:27:31.245Z,7.37
2019-03-31T17:30:01.842Z,7.97
2019-03-31T17:32:32.907Z,8.57
2019-03-31T17:35:03.508Z,8.20
2019-03-31T17:37:34.199Z,8.07
2019-03-31T17:40:07.213Z,8.60
2019-03-31T17:42:38.259Z,8.33
2019-03-31T17:45:09.944Z,8.80
2019-03-31T17:47:41.259Z,8.57
2019-03-31T17:50:12.276Z,8.70
2019-03-31T17:52:45.116Z,8.63
2019-03-31T17:55:15.761Z,7.97
2019-03-31T17:57:47.876Z,8.43
2019-03-31T18:00:18.412Z,8.00
2019-03-31T18:02:49.021Z,7.37
2019-03-31T18:05:19.904Z,7.80
2019-03-31T18:07:52.938Z,8.00
2019-03-31T18:10:26.361Z,8.27
2019-03-31T18:12:56.960Z,7.10
2019-03-31T18:15:29.009Z,7.90
2019-03-31T18:18:00.686Z,7.67
2019-03-31T18:20:31.251Z,7.37
2019-03-31T18:23:03.183Z,7.67
2019-03-31T18:25:35.055Z,7.67
2019-03-31T18:28:06.107Z,7.53
2019-03-31T18:30:36.426Z,6.93
2019-03-31T18:33:07.140Z,6.43
2019-03-31T18:35:37.959Z,6.87
2019-03-31T18:38:08.691Z,7.00
2019-03-31T18:40:41.401Z,6.90
2019-03-31T18:43:13.688Z,7.27
2019-03-31T18:45:45.512Z,7.60
2019-03-31T18:48:18.193Z,6.40
2019-03-31T18:50:54.033Z,7.30
2019-03-31T18:53:42.468Z,7.23
2019-03-31T18:56:47.432Z,7.37
2019-03-31T18:59:43.468Z,7.60
2019-03-31T19:02:46.992Z,7.33
2019-03-31T19:05:45.907Z,6.40
2019-03-31T19:08:35.952Z,7.17
2019-03-31T19:11:30.205Z,7.13
2019-03-31T19:14:22.866Z,7.53
2019-03-31T19:17:03.601Z,7.63
2019-03-31T19:19:59.935Z,8.77
2019-03-31T19:23:06.711Z,7.10
2019-03-31T19:25:55.331Z,6.80
2019-03-31T19:28:36.677Z,7.37
2019-03-31T19:31:18.548Z,7.10
2019-03-31T19:34:10.612Z,6.77
2019-03-31T19:37:08.321Z,8.07
2019-03-31T19:40:07.335Z,7.40
2019-03-31T19:42:59.768Z,7.53
2019-03-31T19:45:58.402Z,7.30
2019-03-31T19:49:08.004Z,7.07
2019-03-31T19:51:57.342Z,7.07
2019-03-31T19:54:50.828Z,7.30
2019-03-31T19:57:44.690Z,7.30
2019-03-31T20:00:44.998Z,7.90
2019-03-31T20:03:54.297Z,7.27
2019-03-31T20:06:49.462Z,8.10
2019-03-31T20:09:31.392Z,7.37
2019-03-31T20:12:15.684Z,6.33
2019-03-31T20:15:14.318Z,6.57
2019-03-31T20:18:03.963Z,6.93
2019-03-31T20:20:47.565Z,7.13
2019-03-31T20:23:35.770Z,7.20
2019-03-31T20:26:27.655Z,6.80
2019-03-31T20:29:17.050Z,7.00
2019-03-31T20:32:18.377Z,8.07
2019-03-31T20:35:10.667Z,6.60
2019-03-31T20:37:50.640Z,6.27
2019-03-31T20:40:51.942Z,7.07
2019-03-31T20:43:47.222Z,6.40
2019-03-31T20:46:17.718Z,7.43
2019-03-31T20:48:48.190Z,7.13
2019-03-31T20:51:18.606Z,7.17
2019-03-31T20:53:49.162Z,6.37
2019-03-31T20:56:19.610Z,6.83
2019-03-31T20:58:50.192Z,6.27
2019-03-31T21:01:20.730Z,5.60
2019-03-31T21:03:51.219Z,5.80
2019-03-31T21:06:21.680Z,5.90
2019-03-31T21:08:52.361Z,6.40
2019-03-31T21:11:22.829Z,6.43
2019-03-31T21:13:56.839Z,5.77
2019-03-31T21:16:25.752Z,5.97
2019-03-31T21:18:57.206Z,6.13
2019-03-31T21:21:27.622Z,6.27
2019-03-31T21:23:58.102Z,5.70
2019-03-31T21:26:29.794Z,5.83
2019-03-31T21:29:00.237Z,6.10
2019-03-31T21:31:30.678Z,6.10
2019-03-31T21:34:01.334Z,6.80
2019-03-31T21:36:31.893Z,7.00
2019-03-31T21:39:05.883Z,6.63
2019-03-31T21:41:36.392Z,7.03
2019-03-31T21:44:07.000Z,7.20
2019-03-31T21:46:37.501Z,8.00
2019-03-31T21:49:07.969Z,6.57
2019-03-31T21:51:38.446Z,7.03
2019-03-31T21:54:08.942Z,6.73
2019-03-31T21:56:40.554Z,6.20
2019-03-31T21:59:11.162Z,6.67
2019-03-31T22:01:41.810Z,6.10
2019-03-31T22:04:12.436Z,6.20
2019-03-31T22:06:42.920Z,6.73
2019-03-31T22:09:14.016Z,6.53
2019-03-31T22:11:44.565Z,7.20
2019-03-31T22:14:14.995Z,7.57
2019-03-31T22:16:45.571Z,6.90
2019-03-31T22:19:16.104Z,7.40
2019-03-31T22:21:46.638Z,6.73
2019-03-31T22:24:17.482Z,7.23
2019-03-31T22:26:47.891Z,8.03
2019-03-31T22:29:18.347Z,8.47
2019-03-31T22:31:48.775Z,9.17
2019-03-31T22:34:19.239Z,9.20
2019-03-31T22:36:49.653Z,10.67
2019-03-31T22:39:20.137Z,9.50
2019-03-31T22:41:50.545Z,10.27
2019-03-31T22:44:20.976Z,11.83
2019-03-31T22:46:56.722Z,11.50
2019-03-31T22:49:27.119Z,10.77
2019-03-31T22:51:57.544Z,10.37
2019-03-31T22:54:28.012Z,10.23
2019-03-31T22:56:58.417Z,10.00
2019-03-31T22:59:28.853Z,9.83
2019-03-31T23:01:59.291Z,10.73
2019-03-31T23:04:30.155Z,11.47
2019-03-31T23:07:00.601Z,12.23
2019-03-31T23:09:34.311Z,12.23
2019-03-31T23:12:03.315Z,12.67
2019-03-31T23:14:33.764Z,12.00
2019-03-31T23:17:04.328Z,11.60
2019-03-31T23:19:34.792Z,10.47
2019-03-31T23:22:06.893Z,10.07
2019-03-31T23:24:37.337Z,9.93
2019-03-31T23:27:07.743Z,10.30
2019-03-31T23:29:38.142Z,9.60
2019-03-31T23:32:08.561Z,9.50
2019-03-31T23:34:38.981Z,9.43
2019-03-31T23:37:09.421Z,8.23
2019-03-31T23:39:39.869Z,8.60
2019-03-31T23:42:10.341Z,8.03
2019-03-31T23:44:40.835Z,8.47
2019-03-31T23:47:11.495Z,8.07
2019-03-31T23:49:41.979Z,8.30
2019-03-31T23:52:12.631Z,8.20
2019-03-31T23:54:43.161Z,7.83
2019-03-31T23:57:13.693Z,7.40
2019-03-31T23:59:45.591Z,7.50
